Time;durP1;ratioP1;P1;durP2;ratioP2;P2;SDS_P1;SDS_P2;PMS_P1;PMS_P2;Temp;Humidity;BMP_temperature;BMP_pressure;BME280_temperature;BME280_humidity;BME280_pressure;Samples;Min_cycle;Max_cycle;Signal;HPM_P1;HPM_P2
2022/06/25 00:01:14;;;;;;;;;;;;;;;18.56;85.17;100835.19;5073303;28;19974;-36
2022/06/25 00:03:40;;;;;;;;;;;;;;;18.52;85.20;100834.13;5073379;28;19912;-36
2022/06/25 00:06:05;;;;;;;;;;;;;;;18.50;84.48;100825.41;5073236;28;20345;-36
2022/06/25 00:08:31;;;;;;;;;;;;;;;18.49;85.30;100826.47;5072973;28;19912;-36
2022/06/25 00:10:56;;;;;;;;;;;;;;;18.46;84.62;100838.00;5072755;28;19939;-36
2022/06/25 00:13:22;;;;;;;;;;;;;;;18.44;85.54;100834.72;5073259;28;19912;-36
2022/06/25 00:15:47;;;;;;;;;;;;;;;18.38;85.86;100833.13;5073016;28;19919;-36
2022/06/25 00:18:13;;;;;;;;;;;;;;;18.33;86.01;100836.72;5072779;28;19912;-36
2022/06/25 00:20:38;;;;;;;;;;;;;;;18.28;86.64;100839.47;5073189;28;19916;-36
2022/06/25 00:23:03;;;;;;;;;;;;;;;18.24;86.27;100841.13;5072678;28;19913;-36
2022/06/25 00:25:29;;;;;;;;;;;;;;;18.24;85.92;100841.13;5072919;28;19920;-36
2022/06/25 00:27:54;;;;;;;;;;;;;;;18.23;86.53;100832.09;5072714;28;19963;-36
2022/06/25 00:30:19;;;;;;;;;;;;;;;18.22;86.72;100837.88;5072905;28;19912;-36
2022/06/25 00:32:44;;;;;;;;;;;;;;;18.20;85.41;100829.97;5073414;28;19912;-36
2022/06/25 00:35:10;;;;;;;;;;;;;;;18.19;86.31;100847.44;5072537;28;19981;-36
2022/06/25 00:37:35;;;;;;;;;;;;;;;18.18;85.74;100843.09;5073628;28;20312;-36
2022/06/25 00:40:00;;;;;;;;;;;;;;;18.17;86.42;100849.66;5073555;28;19955;-36
2022/06/25 00:42:26;;;;;;;;;;;;;;;18.17;85.67;100846.94;5072762;28;19940;-36
2022/06/25 00:44:53;;;;;;;;;;;;;;;18.20;85.71;100845.53;5072997;28;20349;-36
2022/06/25 00:47:19;;;;;;;;;;;;;;;18.17;86.36;100844.19;5072349;28;19912;-36
2022/06/25 00:49:44;;;;;;;;;;;;;;;18.15;86.76;100849.09;5072667;28;19919;-37
2022/06/25 00:52:10;;;;;;;;;;;;;;;18.13;86.72;100845.03;5072934;28;20364;-36
2022/06/25 00:54:37;;;;;;;;;;;;;;;18.08;86.92;100845.06;5072783;28;19912;-36
2022/06/25 00:57:04;;;;;;;;;;;;;;;18.06;86.64;100842.63;5072853;28;20280;-36
2022/06/25 00:59:33;;;;;;;;;;;;;;;18.04;87.05;100844.78;5074915;28;20011;-36
2022/06/25 01:01:58;;;;;;;;;;;;;;;18.02;86.66;100852.47;5076690;28;20422;-36
2022/06/25 01:04:23;;;;;;;;;;;;;;;18.03;86.53;100865.06;5076119;28;19924;-36
2022/06/25 01:06:48;;;;;;;;;;;;;;;18.03;86.24;100862.31;5076466;28;19960;-36
2022/06/25 01:09:14;;;;;;;;;;;;;;;18.05;86.18;100856.56;5075715;28;19935;-36
2022/06/25 01:11:39;;;;;;;;;;;;;;;18.05;86.47;100860.09;5075980;28;19918;-36
2022/06/25 01:14:11;;;;;;;;;;;;;;;18.03;86.50;100859.59;5075845;28;19948;-36
2022/06/25 01:16:36;;;;;;;;;;;;;;;18.00;87.21;100865.59;5075617;28;20394;-36
2022/06/25 01:19:09;;;;;;;;;;;;;;;17.97;87.06;100866.19;5075724;28;19913;-36
2022/06/25 01:21:35;;;;;;;;;;;;;;;17.95;86.90;100865.63;5075503;28;19912;-36
2022/06/25 01:24:01;;;;;;;;;;;;;;;17.94;86.59;100861.25;5076420;28;19912;-36
2022/06/25 01:26:26;;;;;;;;;;;;;;;17.90;86.68;100861.00;5075694;28;20058;-36
2022/06/25 01:28:51;;;;;;;;;;;;;;;17.90;86.39;100869.19;5075373;28;19919;-36
2022/06/25 01:31:16;;;;;;;;;;;;;;;17.90;86.85;100873.84;5076304;28;19912;-36
2022/06/25 01:33:42;;;;;;;;;;;;;;;17.89;86.27;100877.69;5075640;28;19912;-36
2022/06/25 01:36:07;;;;;;;;;;;;;;;17.88;86.93;100878.78;5075520;28;19919;-36
2022/06/25 01:38:32;;;;;;;;;;;;;;;17.85;86.70;100884.81;5075161;28;19912;-36
2022/06/25 01:40:57;;;;;;;;;;;;;;;17.83;86.69;100887.84;5075537;28;20010;-36
2022/06/25 01:43:22;;;;;;;;;;;;;;;17.82;86.56;100890.84;5075623;28;19917;-36
2022/06/25 01:45:48;;;;;;;;;;;;;;;17.80;86.91;100893.03;5075785;28;19926;-36
2022/06/25 01:48:13;;;;;;;;;;;;;;;17.78;86.91;100900.72;5075428;28;19912;-36
2022/06/25 01:50:38;;;;;;;;;;;;;;;17.74;87.46;100895.78;5074891;28;19912;-36
2022/06/25 01:53:04;;;;;;;;;;;;;;;17.71;87.47;100892.75;5075309;28;20391;-36
2022/06/25 01:55:30;;;;;;;;;;;;;;;17.72;87.00;100899.88;5074911;28;19995;-36
2022/06/25 01:57:55;;;;;;;;;;;;;;;17.70;87.27;100905.59;5074806;28;19912;-36
2022/06/25 02:00:25;;;;;;;;;;;;;;;17.66;87.22;100904.50;5075100;28;19923;-36
2022/06/25 02:02:50;;;;;;;;;;;;;;;17.64;87.11;100912.19;5075430;28;19913;-36
2022/06/25 02:05:16;;;;;;;;;;;;;;;17.62;87.59;100914.38;5074736;28;19923;-36
2022/06/25 02:07:42;;;;;;;;;;;;;;;17.61;87.09;100920.13;5075062;28;19916;-36
2022/06/25 02:10:07;;;;;;;;;;;;;;;17.56;87.92;100929.13;5074756;28;20341;-36
2022/06/25 02:12:33;;;;;;;;;;;;;;;17.53;87.32;100926.16;5074461;28;19912;-36
2022/06/25 02:14:58;;;;;;;;;;;;;;;17.49;87.70;100923.16;5074718;28;19948;-36
2022/06/25 02:17:24;;;;;;;;;;;;;;;17.46;87.86;100926.41;5074412;28;19912;-36
2022/06/25 02:19:49;;;;;;;;;;;;;;;17.44;87.79;100925.88;5075098;28;20374;-36
2022/06/25 02:22:14;;;;;;;;;;;;;;;17.43;88.04;100930.53;5074852;28;20369;-36
2022/06/25 02:24:43;;;;;;;;;;;;;;;17.39;88.02;100932.19;5074648;28;20369;-36
2022/06/25 02:27:09;;;;;;;;;;;;;;;17.41;87.20;100935.44;5074379;28;20280;-36
2022/06/25 02:29:34;;;;;;;;;;;;;;;17.41;87.83;100940.91;5074593;28;19912;-36
2022/06/25 02:31:59;;;;;;;;;;;;;;;17.38;88.14;100936.00;5075152;28;20047;-36
2022/06/25 02:34:25;;;;;;;;;;;;;;;17.36;87.47;100937.38;5074018;28;19931;-36
2022/06/25 02:36:50;;;;;;;;;;;;;;;17.33;87.75;100949.69;5074472;28;20061;-36
2022/06/25 02:39:16;;;;;;;;;;;;;;;17.34;87.05;100947.75;5074244;28;19955;-36
2022/06/25 02:41:41;;;;;;;;;;;;;;;17.32;87.53;100958.94;5074643;28;20210;-36
2022/06/25 02:44:06;;;;;;;;;;;;;;;17.30;88.02;100952.94;5074085;28;19912;-36
2022/06/25 02:46:32;;;;;;;;;;;;;;;17.28;87.20;100957.88;5073739;28;19962;-36
2022/06/25 02:48:57;;;;;;;;;;;;;;;17.26;88.07;100962.78;5073716;28;19916;-36
2022/06/25 02:51:22;;;;;;;;;;;;;;;17.24;87.22;100963.06;5073709;28;19959;-36
2022/06/25 02:53:47;;;;;;;;;;;;;;;17.25;87.39;100972.06;5074165;28;19954;-36
2022/06/25 02:58:58;;;;;;;;;;;;;;;17.19;87.76;100965.78;5073925;28;19981;-36
2022/06/25 03:01:24;;;;;;;;;;;;;;;17.18;87.55;100968.81;5074124;28;19939;-36
2022/06/25 03:03:50;;;;;;;;;;;;;;;17.15;87.72;100970.16;5073696;28;19913;-36
2022/06/25 03:06:16;;;;;;;;;;;;;;;17.17;87.32;100969.88;5073886;28;19912;-36
2022/06/25 03:08:41;;;;;;;;;;;;;;;17.17;87.26;100967.97;5073720;28;19966;-36
2022/06/25 03:11:06;;;;;;;;;;;;;;;17.16;87.34;100973.69;5073694;28;20365;-36
2022/06/25 03:13:34;;;;;;;;;;;;;;;17.11;87.87;100974.50;5073534;28;19912;-36
2022/06/25 03:15:59;;;;;;;;;;;;;;;17.08;87.34;100975.06;5074010;28;20311;-36
2022/06/25 03:18:25;;;;;;;;;;;;;;;17.06;87.25;100974.50;5073804;28;20015;-36
2022/06/25 03:20:50;;;;;;;;;;;;;;;17.08;87.32;100976.97;5073318;28;20269;-36
2022/06/25 03:23:16;;;;;;;;;;;;;;;17.10;87.36;100983.81;5073704;28;20276;-36
2022/06/25 03:25:41;;;;;;;;;;;;;;;17.12;87.42;100981.63;5073702;28;19919;-36
2022/06/25 03:28:06;;;;;;;;;;;;;;;17.13;86.89;100980.53;5073941;28;20401;-36
2022/06/25 03:30:31;;;;;;;;;;;;;;;17.15;87.58;100986.56;5073938;28;20003;-36
2022/06/25 03:32:57;;;;;;;;;;;;;;;17.16;87.08;100979.16;5073587;28;19988;-36
2022/06/25 03:35:22;;;;;;;;;;;;;;;17.14;86.73;100987.66;5073644;28;19912;-36
2022/06/25 03:37:47;;;;;;;;;;;;;;;17.16;86.56;100988.19;5073677;28;19912;-36
2022/06/25 03:40:12;;;;;;;;;;;;;;;17.18;86.30;100987.94;5073709;28;19966;-36
2022/06/25 03:42:38;;;;;;;;;;;;;;;17.18;86.16;100990.66;5073736;28;19919;-36
2022/06/25 03:45:03;;;;;;;;;;;;;;;17.17;86.77;100981.63;5072909;28;19912;-36
2022/06/25 03:47:28;;;;;;;;;;;;;;;17.19;86.09;100982.19;5071854;28;19913;-36
2022/06/25 03:49:53;;;;;;;;;;;;;;;17.22;85.89;100980.81;5073132;28;19913;-37
2022/06/25 03:52:19;;;;;;;;;;;;;;;17.24;85.86;100987.66;5073370;28;19989;-36
2022/06/25 03:54:44;;;;;;;;;;;;;;;17.27;86.15;100988.19;5073326;28;19912;-37
2022/06/25 03:57:09;;;;;;;;;;;;;;;17.29;86.42;100986.03;5073307;28;20437;-36
2022/06/25 03:59:35;;;;;;;;;;;;;;;17.28;86.71;100995.31;5073091;28;20366;-37
2022/06/25 04:02:00;;;;;;;;;;;;;;;17.29;87.06;100991.50;5073572;28;19955;-36
2022/06/25 04:04:25;;;;;;;;;;;;;;;17.30;87.30;100993.13;5073012;28;19943;-37
2022/06/25 04:06:50;;;;;;;;;;;;;;;17.33;86.75;100992.59;5073437;28;20277;-36
2022/06/25 04:09:15;;;;;;;;;;;;;;;17.35;87.10;100996.69;5073178;28;19977;-36
2022/06/25 04:11:41;;;;;;;;;;;;;;;17.38;87.34;100993.41;5072993;28;20010;-36
2022/06/25 04:14:06;;;;;;;;;;;;;;;17.39;87.55;100992.31;5073346;28;19919;-36
2022/06/25 04:16:32;;;;;;;;;;;;;;;17.39;87.57;101000.50;5073182;28;19912;-36
2022/06/25 04:18:57;;;;;;;;;;;;;;;17.40;87.50;101001.31;5073332;28;20001;-36
2022/06/25 04:21:23;;;;;;;;;;;;;;;17.40;87.78;100993.94;5072896;28;19916;-36
2022/06/25 04:23:48;;;;;;;;;;;;;;;17.42;87.75;100999.13;5072833;28;19916;-36
2022/06/25 04:26:13;;;;;;;;;;;;;;;17.44;87.83;100997.78;5072809;28;19926;-36
2022/06/25 04:31:23;;;;;;;;;;;;;;;17.45;88.10;100995.88;5072594;28;19921;-36
2022/06/25 04:33:48;;;;;;;;;;;;;;;17.51;87.21;101002.97;5074626;28;20272;-36
2022/06/25 04:36:13;;;;;;;;;;;;;;;17.50;88.39;101010.34;5076338;28;20361;-37
2022/06/25 04:38:39;;;;;;;;;;;;;;;17.51;87.92;101009.25;5076754;28;19921;-36
2022/06/25 04:41:04;;;;;;;;;;;;;;;17.54;88.65;101016.09;5076890;28;19926;-36
2022/06/25 04:43:29;;;;;;;;;;;;;;;17.57;87.92;101010.09;5076473;28;19956;-36
2022/06/25 04:45:55;;;;;;;;;;;;;;;17.58;88.68;101017.19;5076269;28;19913;-36
2022/06/25 04:48:20;;;;;;;;;;;;;;;17.60;88.58;101025.94;5076015;28;19912;-36
2022/06/25 04:50:46;;;;;;;;;;;;;;;17.64;88.09;101024.31;5076334;28;19922;-36
2022/06/25 04:53:11;;;;;;;;;;;;;;;17.73;88.32;101019.97;5076271;28;19912;-36
2022/06/25 04:55:36;;;;;;;;;;;;;;;17.86;88.33;101025.94;5076236;28;19919;-36
2022/06/25 04:58:02;;;;;;;;;;;;;;;17.98;87.97;101027.31;5076232;28;19919;-36
2022/06/25 05:00:27;;;;;;;;;;;;;;;18.12;88.07;101026.75;5075658;28;19956;-36
2022/06/25 05:02:52;;;;;;;;;;;;;;;18.20;87.29;101032.50;5075907;28;19919;-36
2022/06/25 05:05:17;;;;;;;;;;;;;;;18.30;87.00;101039.00;5075917;28;19912;-36
2022/06/25 05:07:43;;;;;;;;;;;;;;;18.35;86.18;101028.03;5075396;28;19912;-36
2022/06/25 05:10:08;;;;;;;;;;;;;;;18.33;85.91;101028.31;5076102;28;19982;-36
2022/06/25 05:15:17;;;;;;;;;;;;;;;18.40;85.81;101036.28;5076167;28;19966;-36
2022/06/25 05:17:42;;;;;;;;;;;;;;;18.39;85.61;101040.06;5076039;28;19913;-36
2022/06/25 05:20:09;;;;;;;;;;;;;;;18.38;85.47;101046.66;5075776;28;19962;-36
2022/06/25 05:22:34;;;;;;;;;;;;;;;18.39;85.42;101040.91;5075727;28;19961;-36
2022/06/25 05:24:59;;;;;;;;;;;;;;;18.40;85.40;101045.31;5075654;28;20321;-36
2022/06/25 05:27:24;;;;;;;;;;;;;;;18.45;85.35;101049.94;5075644;28;19912;-37
2022/06/25 05:29:50;;;;;;;;;;;;;;;18.51;85.17;101051.56;5075294;28;19913;-36
2022/06/25 05:32:15;;;;;;;;;;;;;;;18.53;84.62;101044.69;5075600;28;19951;-36
2022/06/25 05:34:40;;;;;;;;;;;;;;;18.55;84.47;101051.81;5075732;28;19959;-36
2022/06/25 05:37:05;;;;;;;;;;;;;;;18.60;84.53;101049.88;5075573;28;20058;-36
2022/06/25 05:39:30;;;;;;;;;;;;;;;18.70;84.38;101055.34;5075406;28;19974;-36
2022/06/25 05:41:56;;;;;;;;;;;;;;;18.85;84.01;101057.22;5075310;28;19916;-36
2022/06/25 05:44:21;;;;;;;;;;;;;;;19.01;84.00;101057.94;5074851;28;20301;-36
2022/06/25 05:46:46;;;;;;;;;;;;;;;19.18;82.90;101052.06;5075266;28;20349;-36
2022/06/25 05:49:11;;;;;;;;;;;;;;;19.26;82.64;101062.47;5074936;28;19912;-36
2022/06/25 05:51:36;;;;;;;;;;;;;;;19.30;82.08;101067.09;5075561;28;19978;-36
2022/06/25 05:54:02;;;;;;;;;;;;;;;19.32;81.71;101071.47;5075107;28;20375;-36
2022/06/25 05:56:27;;;;;;;;;;;;;;;19.30;81.12;101075.31;5075349;28;19916;-37
2022/06/25 05:58:53;;;;;;;;;;;;;;;19.30;81.51;101078.06;5075055;28;19958;-36
2022/06/25 06:01:18;;;;;;;;;;;;;;;19.28;81.23;101072.06;5075195;28;19969;-36
2022/06/25 06:03:43;;;;;;;;;;;;;;;19.27;81.17;101083.28;5074617;28;19913;-36
2022/06/25 06:06:08;;;;;;;;;;;;;;;19.30;81.12;101077.25;5075594;28;19912;-37
2022/06/25 06:08:33;;;;;;;;;;;;;;;19.37;81.34;101085.97;5074849;28;19912;-36
2022/06/25 06:10:58;;;;;;;;;;;;;;;19.41;80.87;101081.53;5074992;28;20353;-36
2022/06/25 06:13:24;;;;;;;;;;;;;;;19.43;80.53;101092.25;5074396;28;19919;-36
2022/06/25 06:15:49;;;;;;;;;;;;;;;19.48;81.01;101087.56;5074766;28;19912;-37
2022/06/25 06:18:14;;;;;;;;;;;;;;;19.50;80.16;101098.22;5074932;28;19913;-37
2022/06/25 06:20:40;;;;;;;;;;;;;;;19.50;80.33;101095.47;5075014;28;19973;-36
2022/06/25 06:23:05;;;;;;;;;;;;;;;19.55;80.51;101093.53;5074495;28;19951;-36
2022/06/25 06:25:30;;;;;;;;;;;;;;;19.62;80.11;101095.16;5056736;28;19912;-36
2022/06/25 06:27:55;;;;;;;;;;;;;;;19.66;80.45;101098.97;5074719;28;20390;-36
2022/06/25 06:30:21;;;;;;;;;;;;;;;19.71;80.30;101112.66;5074441;28;19980;-36
2022/06/25 06:32:46;;;;;;;;;;;;;;;19.76;80.39;101112.59;5074044;28;20324;-36
2022/06/25 06:35:11;;;;;;;;;;;;;;;19.86;80.04;101114.44;5074445;28;20003;-36
2022/06/25 06:37:37;;;;;;;;;;;;;;;19.90;79.17;101110.84;5074564;28;19912;-36
2022/06/25 06:40:02;;;;;;;;;;;;;;;19.91;78.46;101106.19;5074894;28;19958;-36
2022/06/25 06:42:29;;;;;;;;;;;;;;;19.95;79.01;101107.25;5074266;28;19912;-36
2022/06/25 06:44:54;;;;;;;;;;;;;;;19.99;78.29;101109.13;5074023;28;19912;-36
2022/06/25 06:47:19;;;;;;;;;;;;;;;20.00;78.40;101107.19;5072928;28;20375;-36
2022/06/25 06:49:44;;;;;;;;;;;;;;;19.97;77.51;101099.56;5074262;28;20281;-36
2022/06/25 06:52:10;;;;;;;;;;;;;;;19.89;77.94;101100.16;5073769;28;20349;-36
2022/06/25 06:54:36;;;;;;;;;;;;;;;19.88;78.66;101104.03;5074410;28;20285;-36
2022/06/25 06:57:02;;;;;;;;;;;;;;;19.82;78.31;101108.75;5073212;28;19918;-36
2022/06/25 06:59:27;;;;;;;;;;;;;;;19.78;78.33;101113.16;5073841;28;19919;-36
2022/06/25 07:01:52;;;;;;;;;;;;;;;19.72;78.23;101108.81;5073868;28;19916;-36
2022/06/25 07:04:17;;;;;;;;;;;;;;;19.80;78.76;101109.00;5073715;28;19913;-36
2022/06/25 07:06:43;;;;;;;;;;;;;;;19.92;78.85;101113.31;5073715;28;19960;-36
2022/06/25 07:09:08;;;;;;;;;;;;;;;19.96;78.55;101114.38;5074244;28;19917;-36
2022/06/25 07:11:33;;;;;;;;;;;;;;;20.03;78.42;101107.44;5073702;28;20273;-36
2022/06/25 07:14:04;;;;;;;;;;;;;;;20.12;78.20;101118.63;5073611;28;20344;-36
2022/06/25 07:16:29;;;;;;;;;;;;;;;20.22;77.69;101117.72;5073592;28;19942;-36
2022/06/25 07:18:55;;;;;;;;;;;;;;;20.35;77.79;101122.56;5073997;28;19919;-36
2022/06/25 07:21:21;;;;;;;;;;;;;;;20.47;77.74;101111.19;5074038;28;20393;-36
2022/06/25 07:23:46;;;;;;;;;;;;;;;20.55;76.96;101121.56;5073168;28;19916;-36
2022/06/25 07:26:11;;;;;;;;;;;;;;;20.60;77.16;101124.25;5073946;28;19912;-36
2022/06/25 07:28:36;;;;;;;;;;;;;;;20.66;77.08;101114.81;5073440;28;20013;-36
2022/06/25 07:31:02;;;;;;;;;;;;;;;20.71;76.38;101109.28;5073114;28;19920;-36
2022/06/25 07:33:29;;;;;;;;;;;;;;;20.76;76.33;101113.88;5073981;28;19912;-36
2022/06/25 07:35:54;;;;;;;;;;;;;;;20.86;76.43;101122.00;5073913;28;19930;-36
2022/06/25 07:38:20;;;;;;;;;;;;;;;20.93;75.64;101116.16;5073306;28;20007;-35
2022/06/25 07:40:45;;;;;;;;;;;;;;;20.99;75.46;101128.75;5073548;28;20390;-36
2022/06/25 07:43:10;;;;;;;;;;;;;;;21.04;75.71;101120.44;5073315;28;20316;-36
2022/06/25 07:45:35;;;;;;;;;;;;;;;21.20;75.63;101123.78;5074158;28;20410;-35
2022/06/25 07:48:00;;;;;;;;;;;;;;;21.26;75.22;101125.34;5073742;28;19916;-35
2022/06/25 07:53:10;;;;;;;;;;;;;;;21.20;74.04;101132.03;5073436;28;19919;-36
2022/06/25 07:55:35;;;;;;;;;;;;;;;21.09;73.04;101126.69;5073124;28;20360;-36
2022/06/25 07:58:00;;;;;;;;;;;;;;;21.08;74.22;101121.44;5073672;28;19918;-36
2022/06/25 08:00:25;;;;;;;;;;;;;;;21.10;74.88;101124.75;5071935;28;19932;-36
2022/06/25 08:02:51;;;;;;;;;;;;;;;21.11;74.98;101123.63;5070844;28;19923;-36
2022/06/25 08:05:17;;;;;;;;;;;;;;;21.12;74.59;101129.94;5074098;28;19916;-36
2022/06/25 08:07:43;;;;;;;;;;;;;;;21.04;74.94;101121.25;5074347;28;19912;-35
2022/06/25 08:10:08;;;;;;;;;;;;;;;20.98;75.28;101130.66;5077075;28;19965;-36
2022/06/25 08:12:33;;;;;;;;;;;;;;;20.91;74.71;101129.38;5077401;28;19913;-36
2022/06/25 08:14:59;;;;;;;;;;;;;;;20.86;75.31;101135.75;5076715;28;20284;-36
2022/06/25 08:17:24;;;;;;;;;;;;;;;20.83;75.16;101136.34;5076291;28;19916;-36
2022/06/25 08:19:49;;;;;;;;;;;;;;;20.78;74.54;101134.47;5076736;28;19970;-36
2022/06/25 08:22:14;;;;;;;;;;;;;;;20.76;74.67;101128.44;5076605;28;20287;-36
2022/06/25 08:24:40;;;;;;;;;;;;;;;20.75;74.05;101137.81;5076383;28;20015;-36
2022/06/25 08:27:05;;;;;;;;;;;;;;;20.74;74.90;101129.84;5076561;28;20053;-36
2022/06/25 08:29:30;;;;;;;;;;;;;;;20.76;75.22;101139.44;5076733;28;19962;-36
2022/06/25 08:31:55;;;;;;;;;;;;;;;20.78;75.24;101139.94;5075674;28;19923;-36
2022/06/25 08:34:21;;;;;;;;;;;;;;;20.81;75.38;101149.56;5076579;28;19913;-36
2022/06/25 08:36:46;;;;;;;;;;;;;;;20.79;74.69;101144.38;5076116;28;19998;-36
2022/06/25 08:39:11;;;;;;;;;;;;;;;20.71;75.06;101147.75;5075904;28;19912;-36
2022/06/25 08:41:37;;;;;;;;;;;;;;;20.68;75.03;101144.75;5076523;28;19916;-36
2022/06/25 08:44:02;;;;;;;;;;;;;;;20.61;74.95;101147.84;5076039;28;19912;-36
2022/06/25 08:46:28;;;;;;;;;;;;;;;20.59;75.31;101144.56;5076360;28;19917;-36
2022/06/25 08:48:56;;;;;;;;;;;;;;;20.61;75.68;101153.34;5075301;28;19924;-36
2022/06/25 08:51:24;;;;;;;;;;;;;;;20.58;75.37;101146.50;5056893;28;20001;-36
2022/06/25 08:53:49;;;;;;;;;;;;;;;20.60;75.38;101137.97;5056322;28;19966;-36
2022/06/25 08:56:16;;;;;;;;;;;;;;;20.70;75.32;101140.63;5056539;28;19921;-36
2022/06/25 08:58:43;;;;;;;;;;;;;;;20.90;75.50;101145.06;5056137;28;19920;-36
2022/06/25 09:01:08;;;;;;;;;;;;;;;21.18;74.77;101139.75;5070992;28;19959;-36
2022/06/25 09:03:33;;;;;;;;;;;;;;;21.40;74.40;101139.22;5076486;28;20373;-36
2022/06/25 09:06:10;;;;;;;;;;;;;;;21.49;73.46;101145.72;5075802;28;20279;-36
2022/06/25 09:08:35;;;;;;;;;;;;;;;21.64;73.18;101142.72;5075896;28;19926;-36
2022/06/25 09:11:01;;;;;;;;;;;;;;;21.68;71.86;101142.97;5075830;28;19913;-37
2022/06/25 09:13:26;;;;;;;;;;;;;;;21.78;73.69;101137.28;5075796;28;19919;-36
2022/06/25 09:15:51;;;;;;;;;;;;;;;21.84;71.84;101136.91;5076541;28;19919;-36
2022/06/25 09:18:17;;;;;;;;;;;;;;;21.82;72.28;101139.16;5076121;28;20114;-36
2022/06/25 09:20:59;;;;;;;;;;;;;;;21.81;72.52;101143.03;5075095;28;19912;-37
2022/06/25 09:23:25;;;;;;;;;;;;;;;21.87;72.87;101134.69;5075710;28;19935;-36
2022/06/25 09:26:07;;;;;;;;;;;;;;;21.92;72.81;101131.84;5075869;28;19932;-36
2022/06/25 09:28:33;;;;;;;;;;;;;;;21.91;72.83;101143.97;5076195;28;19912;-36
2022/06/25 09:30:59;;;;;;;;;;;;;;;21.81;72.45;101143.03;5075302;28;19912;-36
2022/06/25 09:33:25;;;;;;;;;;;;;;;21.74;72.87;101145.31;5075849;28;20003;-36
2022/06/25 09:35:51;;;;;;;;;;;;;;;21.68;72.95;101142.97;5075542;28;19912;-36
2022/06/25 09:38:16;;;;;;;;;;;;;;;21.64;72.92;101147.41;5075516;28;20018;-36
2022/06/25 09:40:49;;;;;;;;;;;;;;;21.67;73.37;101141.28;5075731;28;20019;-36
2022/06/25 09:43:15;;;;;;;;;;;;;;;21.68;72.95;101137.44;5075808;28;19976;-36
2022/06/25 09:45:45;;;;;;;;;;;;;;;21.71;73.39;101136.84;5075266;28;19935;-36
2022/06/25 09:48:38;;;;;;;;;;;;;;;21.77;72.58;101138.41;5074769;28;20280;-36
2022/06/25 09:51:03;;;;;;;;;;;;;;;21.85;71.43;101140.47;5076572;28;19935;-37
2022/06/25 09:53:29;;;;;;;;;;;;;;;21.93;71.21;101139.00;5075327;28;19913;-37
2022/06/25 09:55:54;;;;;;;;;;;;;;;21.97;69.99;101140.03;5075292;28;19959;-37
2022/06/25 09:58:20;;;;;;;;;;;;;;;22.05;70.53;101145.66;5074919;28;19920;-37
2022/06/25 10:00:45;;;;;;;;;;;;;;;22.12;70.35;101150.81;5075098;28;19916;-37
2022/06/25 10:03:11;;;;;;;;;;;;;;;22.17;70.58;101150.72;5075068;28;19943;-37
2022/06/25 10:05:40;;;;;;;;;;;;;;;22.19;70.09;101145.72;5074664;28;19920;-37
2022/06/25 10:08:07;;;;;;;;;;;;;;;22.28;70.62;101141.16;5074168;28;19916;-37
2022/06/25 10:10:36;;;;;;;;;;;;;;;22.36;70.82;101147.94;5074156;28;19912;-37
2022/06/25 10:13:02;;;;;;;;;;;;;;;22.43;70.40;101142.81;5074715;28;19919;-37
2022/06/25 10:15:28;;;;;;;;;;;;;;;22.51;70.89;101144.06;5074488;28;20364;-37
2022/06/25 10:17:53;;;;;;;;;;;;;;;22.59;68.62;101141.44;5075004;28;19966;-37
2022/06/25 10:20:19;;;;;;;;;;;;;;;22.62;69.33;101146.31;5074907;28;20380;-37
2022/06/25 10:22:46;;;;;;;;;;;;;;;22.58;68.33;101139.78;5074264;28;19928;-41
2022/06/25 10:25:16;;;;;;;;;;;;;;;22.54;69.13;101148.97;5074599;28;20055;-37
2022/06/25 10:27:43;;;;;;;;;;;;;;;22.54;68.13;101148.97;5074481;28;19916;-37
2022/06/25 10:30:09;;;;;;;;;;;;;;;22.60;69.25;101137.56;5074243;28;19939;-37
2022/06/25 10:32:41;;;;;;;;;;;;;;;22.83;68.64;101137.66;5074076;28;20365;-37
2022/06/25 10:35:07;;;;;;;;;;;;;;;23.16;68.63;101130.09;5072928;28;20296;-37
2022/06/25 10:37:50;;;;;;;;;;;;;;;23.34;66.29;101133.88;5073893;28;19942;-37
2022/06/25 10:40:17;;;;;;;;;;;;;;;23.36;66.30;101137.13;5073777;28;20285;-38
2022/06/25 10:43:00;;;;;;;;;;;;;;;23.31;67.10;101129.78;5073713;28;20379;-37
2022/06/25 10:45:26;;;;;;;;;;;;;;;23.41;66.63;101133.44;5073117;28;19920;-37
2022/06/25 10:47:57;;;;;;;;;;;;;;;23.59;65.67;101135.22;5073858;28;19912;-37
2022/06/25 10:50:22;;;;;;;;;;;;;;;23.75;65.48;101132.94;5074176;28;20273;-37
2022/06/25 10:55:32;;;;;;;;;;;;;;;23.97;64.52;101135.72;5074092;28;19920;-37
2022/06/25 10:58:12;;;;;;;;;;;;;;;23.83;62.82;101137.72;5074309;28;20019;-37
2022/06/25 11:01:03;;;;;;;;;;;;;;;23.67;64.34;101130.94;5074192;28;19916;-37
2022/06/25 11:03:28;;;;;;;;;;;;;;;23.58;65.61;101122.56;5073944;28;20015;-37
2022/06/25 11:05:54;;;;;;;;;;;;;;;23.66;65.27;101113.56;5074641;28;19959;-37
2022/06/25 11:08:22;;;;;;;;;;;;;;;23.72;65.31;101115.09;5074021;28;19919;-37
2022/06/25 11:10:48;;;;;;;;;;;;;;;23.72;63.48;101111.47;5073990;28;19918;-37
2022/06/25 11:13:13;;;;;;;;;;;;;;;23.83;62.09;101110.94;5073481;28;19912;-37
2022/06/25 11:15:44;;;;;;;;;;;;;;;23.94;62.93;101110.69;5074434;28;19919;-37
2022/06/25 11:18:11;;;;;;;;;;;;;;;24.02;61.82;101115.47;5072119;28;20011;-37
2022/06/25 11:20:37;;;;;;;;;;;;;;;24.13;61.16;101116.81;5074021;28;19919;-37
2022/06/25 11:23:05;;;;;;;;;;;;;;;24.29;60.60;101118.03;5073893;28;19913;-37
2022/06/25 11:28:48;;;;;;;;;;;;;;;24.53;59.18;101114.94;5073616;28;19935;-37
2022/06/25 11:31:16;;;;;;;;;;;;;;;24.76;60.78;101124.00;5074132;28;19912;-37
2022/06/25 11:33:43;;;;;;;;;;;;;;;24.97;58.85;101121.44;5073470;28;20355;-37
2022/06/25 11:36:08;;;;;;;;;;;;;;;25.05;58.72;101119.84;5073399;28;20327;-37
2022/06/25 11:38:34;;;;;;;;;;;;;;;25.17;57.29;101117.28;5073421;28;19912;-37
2022/06/25 11:40:59;;;;;;;;;;;;;;;25.27;55.80;101113.41;5073593;28;20253;-37
2022/06/25 11:43:26;;;;;;;;;;;;;;;25.38;57.24;101132.16;5072830;28;20334;-37
2022/06/25 11:45:52;;;;;;;;;;;;;;;25.32;55.07;101127.06;5073549;28;19912;-37
2022/06/25 11:48:18;;;;;;;;;;;;;;;25.30;55.99;101123.81;5073370;28;20349;-37
2022/06/25 11:50:43;;;;;;;;;;;;;;;25.37;55.64;101127.72;5073302;28;19919;-37
2022/06/25 11:53:09;;;;;;;;;;;;;;;25.58;56.78;101130.69;5073971;28;20360;-37
2022/06/25 11:55:37;;;;;;;;;;;;;;;25.74;56.05;101119.94;5073867;28;19912;-37
2022/06/25 11:58:02;;;;;;;;;;;;;;;25.88;57.07;101123.38;5073233;28;19913;-37
2022/06/25 12:00:29;;;;;;;;;;;;;;;25.88;54.32;101119.78;5073030;28;19916;-38
2022/06/25 12:03:01;;;;;;;;;;;;;;;25.67;55.35;101116.84;5072875;28;19920;-37
2022/06/25 12:05:27;;;;;;;;;;;;;;;25.74;55.79;101119.94;5073006;28;19913;-37
2022/06/25 12:07:55;;;;;;;;;;;;;;;25.96;54.38;101124.50;5073524;28;19919;-37
2022/06/25 12:10:21;;;;;;;;;;;;;;;25.87;53.33;101127.28;5073574;28;20279;-37
2022/06/25 12:12:48;;;;;;;;;;;;;;;25.68;55.71;101122.06;5073330;28;20010;-37
2022/06/25 12:15:13;;;;;;;;;;;;;;;25.49;55.40;101120.75;5072929;28;19919;-37
2022/06/25 12:17:39;;;;;;;;;;;;;;;25.33;56.90;101117.66;5073055;28;19912;-37
2022/06/25 12:20:04;;;;;;;;;;;;;;;25.24;56.25;101117.63;5075481;28;19912;-37
2022/06/25 12:22:30;;;;;;;;;;;;;;;25.27;57.23;101122.50;5082295;28;20023;-37
2022/06/25 12:24:57;;;;;;;;;;;;;;;25.39;56.42;101128.25;5074793;28;20344;-37
2022/06/25 12:27:22;;;;;;;;;;;;;;;25.62;55.13;101122.53;5092313;28;19939;-37
2022/06/25 12:29:49;;;;;;;;;;;;;;;25.91;56.34;101119.97;5092502;28;20348;-37
2022/06/25 12:32:14;;;;;;;;;;;;;;;25.99;56.47;101120.25;5072473;28;20368;-37
2022/06/25 12:34:45;;;;;;;;;;;;;;;25.89;55.07;101125.00;5073190;28;19919;-37
2022/06/25 12:37:10;;;;;;;;;;;;;;;25.69;53.29;101118.16;5072903;28;19913;-37
2022/06/25 12:39:36;;;;;;;;;;;;;;;25.47;54.83;101125.78;5072610;28;20399;-37
2022/06/25 12:42:06;;;;;;;;;;;;;;;25.23;54.15;101121.56;5072816;28;19912;-37
2022/06/25 12:44:36;;;;;;;;;;;;;;;25.11;56.25;101124.13;5073012;28;19913;-37
2022/06/25 12:47:02;;;;;;;;;;;;;;;25.15;55.98;101112.09;5073278;28;19912;-37